Cyprien — FN4400 — position and weather

sailwx.info

Track history (hours):
 
Tides and Currents Weather Stations Pressure Air Temp Water Temp Dewpoint Dewpoint Depression Visibility Wind Speed Wind Dir Waves Ship Positions

Cyprien

Last reported at 2017-Aug-21 11:18 UTC. Time now 2017-Sep-25 08:22 UTC.
Position N 47°31' W 003°37'.
Warning: this ship's position is 34 days out of date.

Type: Sailing vessel. MMSI: 227536850.

Date/timePositionNaut miles runAvg speedWind from/ knotsBaromVisibWave heightAir tempDewpointWater temp
2017-Aug-21 11:18N 47°31' W 003°37'3 5.9
2017-Aug-21 10:51N 47°29' W 003°34'2 5.9
2017-Aug-21 10:30N 47°28' W 003°32'3 5.9
2017-Aug-21 10:00N 47°26' W 003°29'3 5.9
2017-Aug-21 09:30N 47°24' W 003°25'3 6.0
2017-Aug-21 08:58N 47°22' W 003°22'11 0.5
2017-Aug-20 12:57N 47°20' W 003°06'2 3.8
2017-Aug-20 12:30N 47°20' W 003°09'0 0.1
2017-Aug-20 11:44N 47°20' W 003°09'0 0.0
2017-Aug-20 11:17N 47°20' W 003°09'0 0.0
2017-Aug-20 10:56N 47°20' W 003°09'0 0.8
2017-Aug-20 10:21N 47°21' W 003°08'1 0.1
2017-Aug-19 16:48N 47°20' W 003°07'1 2.4
2017-Aug-19 16:28N 47°20' W 003°08'2 4.0
2017-Aug-19 16:00N 47°22' W 003°09'2 4.0
2017-Aug-19 15:30N 47°23' W 003°12'2 4.8
2017-Aug-19 15:00N 47°25' W 003°14'5 5.5
2017-Aug-19 14:00N 47°29' W 003°20'3 6.0
2017-Aug-19 13:30N 47°32' W 003°22'3 6.4
2017-Aug-19 13:00N 47°35' W 003°23'3 6.4
2017-Aug-19 12:30N 47°38' W 003°24'2 4.4
2017-Aug-19 12:00N 47°39' W 003°27'0 0.0
2017-Aug-17 19:14N 47°39' W 003°27'0 0.0
2017-Aug-17 18:56N 47°39' W 003°27'0 0.0
2017-Aug-17 18:29N 47°39' W 003°27'0 0.0
2017-Aug-17 17:59N 47°39' W 003°27'0 0.0
2017-Aug-17 17:29N 47°39' W 003°27'0 0.0
2017-Aug-17 16:59N 47°39' W 003°27'0 0.0
2017-Aug-17 16:29N 47°39' W 003°27'0 0.0
2017-Aug-17 15:56N 47°39' W 003°27'0 0.0
2017-Aug-17 15:29N 47°39' W 003°27'0 0.0
2017-Aug-17 14:59N 47°39' W 003°27'0 0.0
2017-Aug-17 14:29N 47°39' W 003°27'0 0.0
2017-Aug-17 13:59N 47°39' W 003°27'0 0.0
2017-Aug-17 12:32N 47°39' W 003°27'0 0.0
2017-Aug-17 12:29N 47°39' W 003°27'0 0.8
2017-Aug-17 12:00N 47°39' W 003°26'2 4.4
2017-Aug-17 11:30N 47°38' W 003°24'3 5.1
2017-Aug-17 11:00N 47°36' W 003°22'3 5.8
2017-Aug-17 10:30N 47°33' W 003°19'3 5.5
2017-Aug-17 10:00N 47°31' W 003°16'3 5.7
2017-Aug-17 09:29N 47°29' W 003°14'3 5.9
2017-Aug-17 09:00N 47°26' W 003°13'2 4.8
2017-Aug-17 08:30N 47°24' W 003°11'2 4.8
2017-Aug-17 08:00N 47°22' W 003°09'2 0.1
2017-Aug-16 12:17N 47°20' W 003°07'0 0.0
2017-Aug-16 11:26N 47°20' W 003°07'0 0.0
2017-Aug-16 10:51N 47°20' W 003°07'7 0.3
2017-Aug-15 12:44N 47°19' W 003°17'1 6.0
2017-Aug-15 12:30N 47°20' W 003°19'3 5.7
2017-Aug-15 12:00N 47°22' W 003°22'3 5.7
2017-Aug-15 11:30N 47°24' W 003°25'3 5.8
2017-Aug-15 11:00N 47°26' W 003°28'3 5.8
2017-Aug-15 10:30N 47°28' W 003°31'3 5.6
2017-Aug-15 09:56N 47°30' W 003°34'2 5.5
2017-Aug-15 09:30N 47°32' W 003°37'  
Track history (hours):
 
Tides and Currents Weather Stations Pressure Air Temp Water Temp Dewpoint Dewpoint Depression Visibility Wind Speed Wind Dir Waves Ship Positions

Cyprien

Last reported at 2017-Aug-21 11:18 UTC. Time now 2017-Sep-25 08:22 UTC.
Position N 47°31' W 003°37'.
Warning: this ship's position is 34 days out of date.

Type: Sailing vessel. MMSI: 227536850.

Date/timePositionNaut miles runAvg speedWind from/ knotsBaromVisibWave heightAir tempDewpointWater temp
2017-Aug-21 11:18N 47°31' W 003°37'3 5.9
2017-Aug-21 10:51N 47°29' W 003°34'2 5.9
2017-Aug-21 10:30N 47°28' W 003°32'3 5.9
2017-Aug-21 10:00N 47°26' W 003°29'3 5.9
2017-Aug-21 09:30N 47°24' W 003°25'3 6.0
2017-Aug-21 08:58N 47°22' W 003°22'11 0.5
2017-Aug-20 12:57N 47°20' W 003°06'2 3.8
2017-Aug-20 12:30N 47°20' W 003°09'0 0.1
2017-Aug-20 11:44N 47°20' W 003°09'0 0.0
2017-Aug-20 11:17N 47°20' W 003°09'0 0.0
2017-Aug-20 10:56N 47°20' W 003°09'0 0.8
2017-Aug-20 10:21N 47°21' W 003°08'1 0.1
2017-Aug-19 16:48N 47°20' W 003°07'1 2.4
2017-Aug-19 16:28N 47°20' W 003°08'2 4.0
2017-Aug-19 16:00N 47°22' W 003°09'2 4.0
2017-Aug-19 15:30N 47°23' W 003°12'2 4.8
2017-Aug-19 15:00N 47°25' W 003°14'5 5.5
2017-Aug-19 14:00N 47°29' W 003°20'3 6.0
2017-Aug-19 13:30N 47°32' W 003°22'3 6.4
2017-Aug-19 13:00N 47°35' W 003°23'3 6.4
2017-Aug-19 12:30N 47°38' W 003°24'2 4.4
2017-Aug-19 12:00N 47°39' W 003°27'0 0.0
2017-Aug-17 19:14N 47°39' W 003°27'0 0.0
2017-Aug-17 18:56N 47°39' W 003°27'0 0.0
2017-Aug-17 18:29N 47°39' W 003°27'0 0.0
2017-Aug-17 17:59N 47°39' W 003°27'0 0.0
2017-Aug-17 17:29N 47°39' W 003°27'0 0.0
2017-Aug-17 16:59N 47°39' W 003°27'0 0.0
2017-Aug-17 16:29N 47°39' W 003°27'0 0.0
2017-Aug-17 15:56N 47°39' W 003°27'0 0.0
2017-Aug-17 15:29N 47°39' W 003°27'0 0.0
2017-Aug-17 14:59N 47°39' W 003°27'0 0.0
2017-Aug-17 14:29N 47°39' W 003°27'0 0.0
2017-Aug-17 13:59N 47°39' W 003°27'0 0.0
2017-Aug-17 12:32N 47°39' W 003°27'0 0.0
2017-Aug-17 12:29N 47°39' W 003°27'0 0.8
2017-Aug-17 12:00N 47°39' W 003°26'2 4.4
2017-Aug-17 11:30N 47°38' W 003°24'3 5.1
2017-Aug-17 11:00N 47°36' W 003°22'3 5.8
2017-Aug-17 10:30N 47°33' W 003°19'3 5.5
2017-Aug-17 10:00N 47°31' W 003°16'3 5.7
2017-Aug-17 09:29N 47°29' W 003°14'3 5.9
2017-Aug-17 09:00N 47°26' W 003°13'2 4.8
2017-Aug-17 08:30N 47°24' W 003°11'2 4.8
2017-Aug-17 08:00N 47°22' W 003°09'2 0.1
2017-Aug-16 12:17N 47°20' W 003°07'0 0.0
2017-Aug-16 11:26N 47°20' W 003°07'0 0.0
2017-Aug-16 10:51N 47°20' W 003°07'7 0.3
2017-Aug-15 12:44N 47°19' W 003°17'1 6.0
2017-Aug-15 12:30N 47°20' W 003°19'3 5.7
2017-Aug-15 12:00N 47°22' W 003°22'3 5.7
2017-Aug-15 11:30N 47°24' W 003°25'3 5.8
2017-Aug-15 11:00N 47°26' W 003°28'3 5.8
2017-Aug-15 10:30N 47°28' W 003°31'3 5.6
2017-Aug-15 09:56N 47°30' W 003°34'2 5.5
2017-Aug-15 09:30N 47°32' W 003°37'  

Dump ship's entire track history